sensor_id;sensor_type;location;lat;lon;timestamp;pressure;altitude;pressure_sealevel;temperature;humidity
53889;BME280;41337;51.400;-2.342;2022-12-19T00:01:02;99703.09;;;11.11;100.00
53889;BME280;41337;51.400;-2.342;2022-12-19T00:06:38;99714.25;;;11.19;100.00
53889;BME280;41337;51.400;-2.342;2022-12-19T00:11:46;99705.50;;;11.24;100.00
53889;BME280;41337;51.400;-2.342;2022-12-19T00:17:07;99724.50;;;11.29;100.00
53889;BME280;41337;51.400;-2.342;2022-12-19T00:22:11;99727.88;;;11.35;100.00
53889;BME280;41337;51.400;-2.342;2022-12-19T00:27:12;99716.53;;;11.38;100.00
53889;BME280;41337;51.400;-2.342;2022-12-19T00:32:33;99687.84;;;11.38;100.00
53889;BME280;41337;51.400;-2.342;2022-12-19T00:37:34;99696.47;;;11.42;100.00
53889;BME280;41337;51.400;-2.342;2022-12-19T00:42:54;99694.63;;;11.47;100.00
53889;BME280;41337;51.400;-2.342;2022-12-19T00:48:00;99678.88;;;11.51;100.00
53889;BME280;41337;51.400;-2.342;2022-12-19T00:53:36;99672.78;;;11.52;100.00
53889;BME280;41337;51.400;-2.342;2022-12-19T00:59:12;99678.81;;;11.56;100.00
53889;BME280;41337;51.400;-2.342;2022-12-19T01:04:39;99678.72;;;11.61;100.00
53889;BME280;41337;51.400;-2.342;2022-12-19T01:09:45;99682.06;;;11.67;100.00
53889;BME280;41337;51.400;-2.342;2022-12-19T01:14:52;99659.44;;;11.68;100.00
53889;BME280;41337;51.400;-2.342;2022-12-19T01:19:53;99674.19;;;11.69;100.00
53889;BME280;41337;51.400;-2.342;2022-12-19T01:24:54;99669.00;;;11.67;100.00
53889;BME280;41337;51.400;-2.342;2022-12-19T01:30:26;99657.69;;;11.67;100.00
53889;BME280;41337;51.400;-2.342;2022-12-19T01:35:30;99683.69;;;11.71;100.00
53889;BME280;41337;51.400;-2.342;2022-12-19T01:40:56;99690.63;;;11.74;100.00
53889;BME280;41337;51.400;-2.342;2022-12-19T01:46:25;99682.72;;;11.77;100.00
53889;BME280;41337;51.400;-2.342;2022-12-19T01:51:55;99703.63;;;11.75;100.00
53889;BME280;41337;51.400;-2.342;2022-12-19T01:57:23;99701.91;;;11.74;100.00
53889;BME280;41337;51.400;-2.342;2022-12-19T02:08:31;99709.69;;;11.76;100.00
53889;BME280;41337;51.400;-2.342;2022-12-19T02:14:07;99700.84;;;11.83;100.00
53889;BME280;41337;51.400;-2.342;2022-12-19T02:36:06;99709.56;;;11.84;100.00
53889;BME280;41337;51.400;-2.342;2022-12-19T02:41:56;99706.78;;;11.91;100.00
53889;BME280;41337;51.400;-2.342;2022-12-19T02:47:03;99712.91;;;11.90;100.00
53889;BME280;41337;51.400;-2.342;2022-12-19T03:14:05;99712.75;;;11.98;100.00
53889;BME280;41337;51.400;-2.342;2022-12-19T03:19:30;99708.41;;;11.99;100.00
53889;BME280;41337;51.400;-2.342;2022-12-19T03:24:51;99709.22;;;12.01;100.00
53889;BME280;41337;51.400;-2.342;2022-12-19T03:30:28;99712.72;;;12.00;100.00
53889;BME280;41337;51.400;-2.342;2022-12-19T03:35:56;99711.06;;;11.96;100.00
53889;BME280;41337;51.400;-2.342;2022-12-19T03:41:03;99709.34;;;11.94;100.00
53889;BME280;41337;51.400;-2.342;2022-12-19T03:46:29;99716.28;;;11.96;100.00
53889;BME280;41337;51.400;-2.342;2022-12-19T03:52:00;99734.59;;;11.94;100.00
53889;BME280;41337;51.400;-2.342;2022-12-19T03:57:28;99715.44;;;11.95;100.00
53889;BME280;41337;51.400;-2.342;2022-12-19T04:02:56;99735.44;;;11.94;100.00
53889;BME280;41337;51.400;-2.342;2022-12-19T04:08:23;99722.47;;;11.91;100.00
53889;BME280;41337;51.400;-2.342;2022-12-19T04:13:48;99731.09;;;11.95;100.00
53889;BME280;41337;51.400;-2.342;2022-12-19T04:19:03;99725.06;;;11.91;100.00
53889;BME280;41337;51.400;-2.342;2022-12-19T04:24:36;99732.03;;;11.92;100.00
53889;BME280;41337;51.400;-2.342;2022-12-19T04:30:03;99736.38;;;11.90;100.00
53889;BME280;41337;51.400;-2.342;2022-12-19T04:35:24;99740.78;;;11.88;100.00
53889;BME280;41337;51.400;-2.342;2022-12-19T04:40:25;99733.91;;;11.84;100.00
53889;BME280;41337;51.400;-2.342;2022-12-19T04:45:29;99734.75;;;11.85;100.00
53889;BME280;41337;51.400;-2.342;2022-12-19T04:50:54;99741.63;;;11.89;100.00
53889;BME280;41337;51.400;-2.342;2022-12-19T04:56:18;99732.09;;;11.86;100.00
53889;BME280;41337;51.400;-2.342;2022-12-19T05:01:19;99728.63;;;11.87;100.00
53889;BME280;41337;51.400;-2.342;2022-12-19T05:06:40;99728.63;;;11.87;100.00
53889;BME280;41337;51.400;-2.342;2022-12-19T05:12:06;99716.41;;;11.88;100.00
53889;BME280;41337;51.400;-2.342;2022-12-19T05:17:07;99725.13;;;11.88;100.00
53889;BME280;41337;51.400;-2.342;2022-12-19T05:22:31;99723.38;;;11.89;100.00
53889;BME280;41337;51.400;-2.342;2022-12-19T05:27:32;99715.50;;;11.92;100.00
53889;BME280;41337;51.400;-2.342;2022-12-19T05:32:53;99712.88;;;11.93;100.00
53889;BME280;41337;51.400;-2.342;2022-12-19T05:38:18;99718.09;;;11.93;100.00
53889;BME280;41337;51.400;-2.342;2022-12-19T05:43:19;99713.59;;;12.00;100.00
53889;BME280;41337;51.400;-2.342;2022-12-19T05:48:20;99711.91;;;11.98;100.00
53889;BME280;41337;51.400;-2.342;2022-12-19T05:53:21;99717.09;;;11.99;100.00
53889;BME280;41337;51.400;-2.342;2022-12-19T05:58:48;99723.09;;;12.03;100.00
53889;BME280;41337;51.400;-2.342;2022-12-19T06:03:50;99680.47;;;12.02;100.00
53889;BME280;41337;51.400;-2.342;2022-12-19T06:08:58;99711.75;;;12.05;100.00
53889;BME280;41337;51.400;-2.342;2022-12-19T06:13:59;99698.66;;;12.07;100.00
53889;BME280;41337;51.400;-2.342;2022-12-19T06:19:23;99708.19;;;12.08;100.00
53889;BME280;41337;51.400;-2.342;2022-12-19T06:24:27;99715.16;;;12.07;100.00
53889;BME280;41337;51.400;-2.342;2022-12-19T06:29:54;99726.41;;;12.11;100.00
53889;BME280;41337;51.400;-2.342;2022-12-19T06:35:15;99739.44;;;12.12;100.00
53889;BME280;41337;51.400;-2.342;2022-12-19T06:40:22;99737.66;;;12.15;100.00
53889;BME280;41337;51.400;-2.342;2022-12-19T06:46:01;99722.03;;;12.13;100.00
53889;BME280;41337;51.400;-2.342;2022-12-19T06:51:03;99734.22;;;12.11;100.00
53889;BME280;41337;51.400;-2.342;2022-12-19T06:56:43;99742.13;;;12.08;100.00
53889;BME280;41337;51.400;-2.342;2022-12-19T07:02:18;99743.78;;;12.12;100.00
53889;BME280;41337;51.400;-2.342;2022-12-19T07:07:20;99693.41;;;12.08;100.00
53889;BME280;41337;51.400;-2.342;2022-12-19T07:12:47;99743.97;;;12.03;100.00
53889;BME280;41337;51.400;-2.342;2022-12-19T07:17:47;99744.91;;;12.00;100.00
53889;BME280;41337;51.400;-2.342;2022-12-19T07:22:48;99757.03;;;12.03;100.00
53889;BME280;41337;51.400;-2.342;2022-12-19T07:28:10;99752.78;;;11.99;100.00
53889;BME280;41337;51.400;-2.342;2022-12-19T07:33:31;99746.78;;;11.95;100.00
53889;BME280;41337;51.400;-2.342;2022-12-19T07:38:36;99732.03;;;11.91;100.00
53889;BME280;41337;51.400;-2.342;2022-12-19T07:43:37;99745.06;;;11.92;100.00
53889;BME280;41337;51.400;-2.342;2022-12-19T07:48:37;99735.50;;;11.91;100.00
53889;BME280;41337;51.400;-2.342;2022-12-19T07:53:38;99741.59;;;11.92;100.00
53889;BME280;41337;51.400;-2.342;2022-12-19T07:58:59;99754.66;;;11.90;100.00
53889;BME280;41337;51.400;-2.342;2022-12-19T08:04:04;99762.50;;;11.90;100.00
53889;BME280;41337;51.400;-2.342;2022-12-19T08:09:34;99746.84;;;11.89;100.00
53889;BME280;41337;51.400;-2.342;2022-12-19T08:15:01;99772.97;;;11.89;100.00
53889;BME280;41337;51.400;-2.342;2022-12-19T08:20:28;99763.41;;;11.86;100.00
53889;BME280;41337;51.400;-2.342;2022-12-19T08:26:04;99780.75;;;11.90;100.00
53889;BME280;41337;51.400;-2.342;2022-12-19T08:31:13;99785.97;;;11.90;100.00
53889;BME280;41337;51.400;-2.342;2022-12-19T08:36:15;99774.66;;;11.90;100.00
53889;BME280;41337;51.400;-2.342;2022-12-19T08:41:41;99779.09;;;11.86;100.00
53889;BME280;41337;51.400;-2.342;2022-12-19T08:47:02;99767.88;;;11.81;100.00
53889;BME280;41337;51.400;-2.342;2022-12-19T08:52:27;99766.16;;;11.80;100.00
53889;BME280;41337;51.400;-2.342;2022-12-19T08:58:06;99746.28;;;11.73;100.00
53889;BME280;41337;51.400;-2.342;2022-12-19T09:03:06;99752.47;;;11.69;100.00
53889;BME280;41337;51.400;-2.342;2022-12-19T09:08:32;99756.78;;;11.70;100.00
53889;BME280;41337;51.400;-2.342;2022-12-19T09:14:00;99750.69;;;11.71;100.00
53889;BME280;41337;51.400;-2.342;2022-12-19T09:19:00;99727.22;;;11.71;100.00
53889;BME280;41337;51.400;-2.342;2022-12-19T09:24:01;99713.25;;;11.72;100.00
53889;BME280;41337;51.400;-2.342;2022-12-19T09:29:29;99706.28;;;11.74;100.00
53889;BME280;41337;51.400;-2.342;2022-12-19T09:34:36;99700.19;;;11.72;100.00
53889;BME280;41337;51.400;-2.342;2022-12-19T09:39:38;99694.91;;;11.76;100.00
53889;BME280;41337;51.400;-2.342;2022-12-19T09:45:02;99723.50;;;11.81;100.00
53889;BME280;41337;51.400;-2.342;2022-12-19T09:55:42;99733.94;;;11.81;100.00
53889;BME280;41337;51.400;-2.342;2022-12-19T10:00:51;99731.34;;;11.81;100.00
53889;BME280;41337;51.400;-2.342;2022-12-19T10:06:12;99719.09;;;11.85;100.00
53889;BME280;41337;51.400;-2.342;2022-12-19T10:17:20;99721.66;;;11.86;100.00
53889;BME280;41337;51.400;-2.342;2022-12-19T10:33:27;99705.06;;;11.90;100.00
53889;BME280;41337;51.400;-2.342;2022-12-19T10:38:42;99708.47;;;11.96;100.00
53889;BME280;41337;51.400;-2.342;2022-12-19T10:48:50;99701.31;;;12.04;100.00
53889;BME280;41337;51.400;-2.342;2022-12-19T10:53:57;99705.72;;;12.02;100.00
53889;BME280;41337;51.400;-2.342;2022-12-19T10:58:58;99701.41;;;12.01;100.00
53889;BME280;41337;51.400;-2.342;2022-12-19T11:04:24;99697.97;;;11.99;100.00
53889;BME280;41337;51.400;-2.342;2022-12-19T11:09:31;99690.13;;;11.99;100.00
53889;BME280;41337;51.400;-2.342;2022-12-19T11:14:43;99684.94;;;11.97;100.00
53889;BME280;41337;51.400;-2.342;2022-12-19T11:19:44;99680.56;;;11.98;100.00
53889;BME280;41337;51.400;-2.342;2022-12-19T11:24:52;99664.91;;;11.98;100.00
53889;BME280;41337;51.400;-2.342;2022-12-19T11:29:54;99660.50;;;12.00;100.00
53889;BME280;41337;51.400;-2.342;2022-12-19T11:35:00;99708.19;;;12.08;100.00
53889;BME280;41337;51.400;-2.342;2022-12-19T11:40:13;99681.13;;;12.12;100.00
53889;BME280;41337;51.400;-2.342;2022-12-19T11:56:15;99700.31;;;12.09;100.00
53889;BME280;41337;51.400;-2.342;2022-12-19T12:06:48;99666.41;;;12.08;100.00
53889;BME280;41337;51.400;-2.342;2022-12-19T12:27:47;99654.38;;;12.02;100.00
53889;BME280;41337;51.400;-2.342;2022-12-19T12:43:46;99657.03;;;11.99;100.00
53889;BME280;41337;51.400;-2.342;2022-12-19T12:49:16;99642.22;;;12.00;100.00
53889;BME280;41337;51.400;-2.342;2022-12-19T12:54:19;99633.41;;;12.05;100.00
53889;BME280;41337;51.400;-2.342;2022-12-19T12:59:24;99623.66;;;12.14;100.00
53889;BME280;41337;51.400;-2.342;2022-12-19T13:04:57;99620.09;;;12.16;100.00
53889;BME280;41337;51.400;-2.342;2022-12-19T13:10:23;99616.78;;;12.09;100.00
53889;BME280;41337;51.400;-2.342;2022-12-19T13:20:45;99595.16;;;12.04;100.00
53889;BME280;41337;51.400;-2.342;2022-12-19T13:25:52;99596.91;;;12.04;100.00
53889;BME280;41337;51.400;-2.342;2022-12-19T13:41:49;99600.16;;;12.14;100.00
53889;BME280;41337;51.400;-2.342;2022-12-19T13:47:15;99611.59;;;12.08;100.00
53889;BME280;41337;51.400;-2.342;2022-12-19T13:52:16;99602.06;;;12.07;100.00
53889;BME280;41337;51.400;-2.342;2022-12-19T13:57:27;99591.63;;;12.07;100.00
53889;BME280;41337;51.400;-2.342;2022-12-19T14:02:33;99580.25;;;12.08;100.00
53889;BME280;41337;51.400;-2.342;2022-12-19T14:07:38;99587.28;;;12.06;100.00
53889;BME280;41337;51.400;-2.342;2022-12-19T14:12:42;99589.94;;;12.04;100.00
53889;BME280;41337;51.400;-2.342;2022-12-19T14:18:23;99581.22;;;12.05;100.00
53889;BME280;41337;51.400;-2.342;2022-12-19T14:23:27;99578.63;;;12.04;100.00
53889;BME280;41337;51.400;-2.342;2022-12-19T14:28:51;99594.16;;;12.10;100.00
53889;BME280;41337;51.400;-2.342;2022-12-19T14:33:56;99585.56;;;12.06;100.00
53889;BME280;41337;51.400;-2.342;2022-12-19T14:38:58;99587.22;;;12.09;100.00
53889;BME280;41337;51.400;-2.342;2022-12-19T14:43:59;99590.81;;;12.05;100.00
53889;BME280;41337;51.400;-2.342;2022-12-19T14:54:24;99613.25;;;12.12;100.00
53889;BME280;41337;51.400;-2.342;2022-12-19T14:59:40;99612.22;;;12.18;100.00
53889;BME280;41337;51.400;-2.342;2022-12-19T15:04:47;99613.13;;;12.18;100.00
53889;BME280;41337;51.400;-2.342;2022-12-19T15:09:59;99607.81;;;12.21;100.00
53889;BME280;41337;51.400;-2.342;2022-12-19T15:15:23;99582.50;;;12.25;100.00
53889;BME280;41337;51.400;-2.342;2022-12-19T15:20:29;99585.91;;;12.27;100.00
53889;BME280;41337;51.400;-2.342;2022-12-19T15:25:29;99575.66;;;12.19;100.00
53889;BME280;41337;51.400;-2.342;2022-12-19T15:30:33;99559.09;;;12.20;100.00
53889;BME280;41337;51.400;-2.342;2022-12-19T15:35:40;99575.56;;;12.22;100.00
53889;BME280;41337;51.400;-2.342;2022-12-19T15:40:41;99582.56;;;12.22;100.00
53889;BME280;41337;51.400;-2.342;2022-12-19T15:45:42;99592.94;;;12.25;100.00
53889;BME280;41337;51.400;-2.342;2022-12-19T15:50:49;99605.94;;;12.26;100.00
53889;BME280;41337;51.400;-2.342;2022-12-19T15:55:50;99619.84;;;12.27;100.00
53889;BME280;41337;51.400;-2.342;2022-12-19T16:01:01;99633.72;;;12.29;100.00
53889;BME280;41337;51.400;-2.342;2022-12-19T16:06:27;99632.88;;;12.28;100.00
53889;BME280;41337;51.400;-2.342;2022-12-19T16:11:28;99661.47;;;12.35;100.00
53889;BME280;41337;51.400;-2.342;2022-12-19T16:16:28;99657.88;;;12.39;100.00
53889;BME280;41337;51.400;-2.342;2022-12-19T16:21:29;99635.28;;;12.38;100.00
53889;BME280;41337;51.400;-2.342;2022-12-19T16:26:38;99637.22;;;12.29;100.00
53889;BME280;41337;51.400;-2.342;2022-12-19T16:31:48;99628.66;;;12.24;100.00
53889;BME280;41337;51.400;-2.342;2022-12-19T16:36:49;99619.91;;;12.25;100.00
53889;BME280;41337;51.400;-2.342;2022-12-19T16:41:54;99623.50;;;12.21;100.00
53889;BME280;41337;51.400;-2.342;2022-12-19T16:46:55;99615.75;;;12.17;100.00
53889;BME280;41337;51.400;-2.342;2022-12-19T16:51:56;99603.47;;;12.20;100.00
53889;BME280;41337;51.400;-2.342;2022-12-19T16:56:57;99606.03;;;12.23;100.00
53889;BME280;41337;51.400;-2.342;2022-12-19T17:01:59;99619.00;;;12.26;100.00
53889;BME280;41337;51.400;-2.342;2022-12-19T17:07:11;99615.44;;;12.29;100.00
53889;BME280;41337;51.400;-2.342;2022-12-19T17:12:17;99614.53;;;12.32;100.00
53889;BME280;41337;51.400;-2.342;2022-12-19T17:17:17;99629.28;;;12.34;100.00
53889;BME280;41337;51.400;-2.342;2022-12-19T17:22:22;99639.66;;;12.36;100.00
53889;BME280;41337;51.400;-2.342;2022-12-19T17:27:22;99641.34;;;12.38;100.00
53889;BME280;41337;51.400;-2.342;2022-12-19T17:32:23;99641.31;;;12.40;100.00
53889;BME280;41337;51.400;-2.342;2022-12-19T17:37:24;99654.38;;;12.40;100.00
53889;BME280;41337;51.400;-2.342;2022-12-19T17:42:25;99643.03;;;12.42;100.00
53889;BME280;41337;51.400;-2.342;2022-12-19T17:47:27;99642.22;;;12.39;100.00
53889;BME280;41337;51.400;-2.342;2022-12-19T17:52:34;99638.81;;;12.35;100.00
53889;BME280;41337;51.400;-2.342;2022-12-19T17:57:35;99631.03;;;12.34;100.00
53889;BME280;41337;51.400;-2.342;2022-12-19T18:02:36;99628.41;;;12.34;100.00
53889;BME280;41337;51.400;-2.342;2022-12-19T18:07:37;99636.28;;;12.32;100.00
53889;BME280;41337;51.400;-2.342;2022-12-19T18:12:38;99627.59;;;12.32;100.00
53889;BME280;41337;51.400;-2.342;2022-12-19T18:17:45;99615.41;;;12.30;100.00
53889;BME280;41337;51.400;-2.342;2022-12-19T18:22:47;99620.63;;;12.30;100.00
53889;BME280;41337;51.400;-2.342;2022-12-19T18:27:54;99608.50;;;12.29;100.00
53889;BME280;41337;51.400;-2.342;2022-12-19T18:33:02;99621.69;;;12.23;100.00
53889;BME280;41337;51.400;-2.342;2022-12-19T18:38:15;99618.19;;;12.24;100.00
53889;BME280;41337;51.400;-2.342;2022-12-19T18:43:17;99621.63;;;12.26;100.00
53889;BME280;41337;51.400;-2.342;2022-12-19T18:48:27;99588.41;;;12.32;100.00
53889;BME280;41337;51.400;-2.342;2022-12-19T18:53:32;99586.63;;;12.34;100.00
53889;BME280;41337;51.400;-2.342;2022-12-19T18:58:33;99601.38;;;12.36;100.00
53889;BME280;41337;51.400;-2.342;2022-12-19T19:03:39;99603.94;;;12.38;100.00
53889;BME280;41337;51.400;-2.342;2022-12-19T19:08:41;99620.34;;;12.43;100.00
53889;BME280;41337;51.400;-2.342;2022-12-19T19:13:41;99626.41;;;12.45;100.00
53889;BME280;41337;51.400;-2.342;2022-12-19T19:18:43;99618.44;;;12.49;100.00
53889;BME280;41337;51.400;-2.342;2022-12-19T19:23:50;99623.66;;;12.49;100.00
53889;BME280;41337;51.400;-2.342;2022-12-19T19:28:54;99616.81;;;12.44;100.00
53889;BME280;41337;51.400;-2.342;2022-12-19T19:34:10;99619.53;;;12.41;100.00
53889;BME280;41337;51.400;-2.342;2022-12-19T19:39:12;99612.59;;;12.40;100.00
53889;BME280;41337;51.400;-2.342;2022-12-19T19:44:17;99607.34;;;12.41;100.00
53889;BME280;41337;51.400;-2.342;2022-12-19T19:49:19;99595.78;;;12.50;100.00
53889;BME280;41337;51.400;-2.342;2022-12-19T19:54:20;99613.22;;;12.49;100.00
53889;BME280;41337;51.400;-2.342;2022-12-19T19:59:21;99622.97;;;12.43;100.00
53889;BME280;41337;51.400;-2.342;2022-12-19T20:04:21;99619.53;;;12.41;100.00
53889;BME280;41337;51.400;-2.342;2022-12-19T20:09:22;99609.94;;;12.41;100.00
53889;BME280;41337;51.400;-2.342;2022-12-19T20:14:23;99584.66;;;12.42;100.00
53889;BME280;41337;51.400;-2.342;2022-12-19T20:19:29;99577.75;;;12.41;100.00
53889;BME280;41337;51.400;-2.342;2022-12-19T20:24:30;99592.63;;;12.37;100.00
53889;BME280;41337;51.400;-2.342;2022-12-19T20:29:30;99564.66;;;12.42;100.00
53889;BME280;41337;51.400;-2.342;2022-12-19T20:34:31;99581.22;;;12.41;100.00
53889;BME280;41337;51.400;-2.342;2022-12-19T20:39:32;99581.19;;;12.43;100.00
53889;BME280;41337;51.400;-2.342;2022-12-19T20:44:40;99606.72;;;12.66;100.00
53889;BME280;41337;51.400;-2.342;2022-12-19T20:49:40;99614.00;;;12.88;100.00
53889;BME280;41337;51.400;-2.342;2022-12-19T20:54:41;99650.28;;;13.00;100.00
53889;BME280;41337;51.400;-2.342;2022-12-19T20:59:42;99648.16;;;13.14;100.00
53889;BME280;41337;51.400;-2.342;2022-12-19T21:04:43;99659.56;;;13.12;100.00
53889;BME280;41337;51.400;-2.342;2022-12-19T21:09:44;99667.34;;;13.13;100.00
53889;BME280;41337;51.400;-2.342;2022-12-19T21:14:48;99688.03;;;13.22;100.00
53889;BME280;41337;51.400;-2.342;2022-12-19T21:19:49;99691.34;;;13.29;100.00
53889;BME280;41337;51.400;-2.342;2022-12-19T21:24:49;99705.34;;;13.27;100.00
53889;BME280;41337;51.400;-2.342;2022-12-19T21:29:51;99704.59;;;13.23;100.00
53889;BME280;41337;51.400;-2.342;2022-12-19T21:34:52;99699.25;;;13.28;100.00
53889;BME280;41337;51.400;-2.342;2022-12-19T21:39:53;99692.91;;;13.36;100.00
53889;BME280;41337;51.400;-2.342;2022-12-19T21:44:54;99689.22;;;13.44;100.00
53889;BME280;41337;51.400;-2.342;2022-12-19T21:50:00;99689.75;;;13.23;100.00
53889;BME280;41337;51.400;-2.342;2022-12-19T21:55:01;99683.66;;;13.23;100.00
53889;BME280;41337;51.400;-2.342;2022-12-19T22:00:03;99669.31;;;13.05;100.00
53889;BME280;41337;51.400;-2.342;2022-12-19T22:05:07;99666.69;;;13.05;100.00
53889;BME280;41337;51.400;-2.342;2022-12-19T22:10:11;99667.50;;;13.07;100.00
53889;BME280;41337;51.400;-2.342;2022-12-19T22:15:12;99670.13;;;13.07;100.00
53889;BME280;41337;51.400;-2.342;2022-12-19T22:20:13;99673.06;;;12.95;100.00
53889;BME280;41337;51.400;-2.342;2022-12-19T22:25:14;99665.78;;;12.72;100.00
53889;BME280;41337;51.400;-2.342;2022-12-19T22:30:15;99645.44;;;12.50;100.00
53889;BME280;41337;51.400;-2.342;2022-12-19T22:35:19;99622.31;;;12.35;100.00
53889;BME280;41337;51.400;-2.342;2022-12-19T22:40:20;99599.00;;;12.25;100.00
53889;BME280;41337;51.400;-2.342;2022-12-19T22:45:21;99611.28;;;12.22;100.00
53889;BME280;41337;51.400;-2.342;2022-12-19T22:50:22;99603.59;;;12.16;100.00
53889;BME280;41337;51.400;-2.342;2022-12-19T22:55:23;99588.03;;;12.11;100.00
53889;BME280;41337;51.400;-2.342;2022-12-19T23:00:24;99589.81;;;12.09;100.00
53889;BME280;41337;51.400;-2.342;2022-12-19T23:05:24;99588.25;;;12.02;100.00
53889;BME280;41337;51.400;-2.342;2022-12-19T23:10:25;99590.88;;;12.02;100.00
53889;BME280;41337;51.400;-2.342;2022-12-19T23:15:27;99598.78;;;11.99;100.00
53889;BME280;41337;51.400;-2.342;2022-12-19T23:20:31;99584.94;;;11.95;100.00
53889;BME280;41337;51.400;-2.342;2022-12-19T23:25:42;99590.22;;;11.92;100.00
53889;BME280;41337;51.400;-2.342;2022-12-19T23:30:43;99596.28;;;11.92;100.00
53889;BME280;41337;51.400;-2.342;2022-12-19T23:35:44;99599.88;;;11.87;100.00
53889;BME280;41337;51.400;-2.342;2022-12-19T23:40:44;99594.63;;;11.88;100.00
53889;BME280;41337;51.400;-2.342;2022-12-19T23:45:45;99585.94;;;11.86;100.00
53889;BME280;41337;51.400;-2.342;2022-12-19T23:51:03;99585.09;;;11.86;100.00
53889;BME280;41337;51.400;-2.342;2022-12-19T23:56:15;99572.94;;;11.85;100.00
